Two Hills, Canada
Current Conditions -  °F | °C
As of 1:00 AM on Tuesday 21 Oct 2014 (Local Time) from CYED Reporting Station
Clear Clear  
Wind Chill: 50°   Ceiling: Unl
Heat Index: 50°   Visibility: 9mi
Dew Point: 36°   Wind: 9mph
Humidity: 58%   Direction: 290°WNW
Pressure: 29.5"   Gusts: NA
Location:  53.72°N, 111.75°W
Report Text: CYED 210700Z AUTO 29008KT 9SM CLR 10/02 A2950 RMK SLP993
Loading
Personal Weather Stations






























Interactive Weather Map New forecast layout! Learn more

10-Day Weather Forecast

Advertisements
Track Severe Weather on mobile